Tiempo atmosférico en la estación meteorológica de Roncesvalles, Navarra (940 m.)



Fecha
DESCASC
Temp. máxima en grados centígrados (hora)
DESCASC
Temp. mínima en grados centígrados (hora)
DESCASC
Temp. media en grados centígrados
DESCASC
Racha de viento máxima en m/sg (hora)
DESCASC
Velocidad máxima media en intervalos de 10 minutos(hora)
DESCASC
Precipitaciones diarias en mm
DESCASC
Precipitaciones de 00:00 a 06:00 en mm
DESCASC
Precipitaciones de 06:00 a 12:00 en mm
DESCASC
Precipitaciones de 12:00 a 18:00 en mm
DESCASC
Precipitaciones de 18:00 a 24:00 en mm
DESCASC
23-06-2019 27.7 (17:30) 15.6 (00:20) 21.7 10 (12:50) 5.83 (12:50) 0 0 0 0 0
22-06-2019 24.3 (17:00) 6 (07:30) 15.1 7.22 (03:00) 3.33 (14:20) 0 0 0 0 0
21-06-2019 12.2 (14:40) 9.3 (23:20) 10.8 9.72 (02:10) 4.72 (00:40) 3.8 3.6 0.2 0 0
20-06-2019 13.1 (14:50) 10.9 (00:00) 12 10 (15:40) 5.28 (15:40) 5.2 0.2 1 0 4
19-06-2019 21.8 (16:30) 11.6 (00:00) 16.7 9.44 (21:50) 5.83 (21:50) -- 0 0 -- 0
18-06-2019 26.4 (18:00) 14.6 (00:00) 20.5 12.78 (14:40) 6.94 (16:10) 0 0 0 0 0
17-06-2019 26.2 (17:30) 9.5 (00:00) 17.9 7.22 (11:50) 3.89 (11:50) 0 0 0 0 0
16-06-2019 21.5 (14:40) 5.1 (00:00) 13.3 8.89 (15:00) 4.72 (18:40) 0 0 0 0 0
15-06-2019 14.5 (15:50) 7.6 (00:00) 11 9.17 (00:20) 4.17 (00:40) 3.8 3 0.8 0 0
14-06-2019 17.3 (16:10) 8 (00:00) 12.6 9.72 (18:40) 5 (18:40) 1.2 0 0 0 1.2
13-06-2019 21.7 (17:10) 3.5 (00:00) 12.6 12.5 (14:10) 6.67 (14:10) 0.6 0 0 0 0.6
12-06-2019 14.6 (17:10) 1.8 (00:00) 8.2 8.89 (19:20) 5 (19:30) 0 0 0 0 0
11-06-2019 9.2 (14:00) 4.1 (00:00) 6.6 8.33 (16:30) 2.5 (15:20) 8 0.6 2 3.4 2
10-06-2019 10.2 (14:20) 5.8 (00:00) 8 9.17 (12:40) 4.17 (12:50) 5.8 2.6 2.4 0.4 0.4
09-06-2019 19.5 (12:50) 8.4 (00:00) 13.9 10 (15:40) 5.56 (15:00) 0.8 0 0 0 0.8
08-06-2019 14.9 (12:30) 1.7 (00:00) 8.3 10 (16:40) 5.28 (17:10) 0 0 0 0 0
07-06-2019 14.9 (00:00) 5.6 (00:00) 10.2 14.72 (00:20) 8.33 (00:20) 6.2 6 0.2 0 0
06-06-2019 17.9 (18:10) 4.1 (00:00) 11 15.56 (19:50) 8.89 (19:50) 0 0 0 0 0
05-06-2019 9 (15:00) 5.1 (00:00) 7 9.17 (05:10) 4.72 (05:20) 46.8 8.4 36.2 2.2 0
04-06-2019 25.1 (14:50) 7.8 (00:00) 16.5 13.33 (17:30) 6.39 (17:30) 15.2 0 0 4.8 10.4
03-06-2019 24.9 (17:10) 10.9 (00:00) 17.9 6.67 (14:00) 3.33 (14:30) 0 0 0 0 0
02-06-2019 26.8 (16:30) 12 (00:00) 19.4 8.61 (21:50) 3.89 (13:30) 0 0 0 0 0
01-06-2019 26.4 (18:20) 10.6 (00:00) 18.5 8.06 (14:30) 5 (11:20) 0 0 0 0 0
31-05-2019 21.2 (13:30) 8.5 (00:00) 14.9 8.33 (00:20) 4.17 (00:20) 0 0 0 0 0
30-05-2019 17 (17:10) 4.7 (00:00) 10.8 10.56 (18:50) 5.28 (01:10) 0 0 0 0 0
29-05-2019 12.8 (16:00) 5.8 (00:00) 9.3 8.89 (23:59) 4.44 (23:40) 5.4 4.6 0.8 0 0
28-05-2019 8.7 (13:00) 6 (00:00) 7.3 9.72 (17:20) 2.5 (17:20) 10.8 0 4.6 3.2 3
27-05-2019 11.2 (12:30) 7.3 (00:00) 9.3 8.89 (19:50) 3.61 (04:50) 9.4 1.2 0.8 4 3.4

Gráficas

Temp. máximas Temp. mínimas Temp. medias Precipitaciones Rachas de viento máximas Velocidades máximas media en intervalos de 10 minutos

Datos horarios

Fecha y hora oficial Temperatura (ºC) Velocidad del viento (km/h) Dirección del viento Racha (km/h) Dirección de racha Precipitación (mm) Presión (hPa) Tendencia (hPa) Humedad (%)
2019-06-25 23:00:00 18 3 Noroeste 6 Nordeste 0 -- -- 100
2019-06-25 22:00:00 19.1 4 Noroeste 24 Norte 0 -- -- 97
2019-06-25 21:00:00 20 14 Norte 33 Nordeste 0 -- -- 95
2019-06-25 20:00:00 21.1 16 Norte 38 Nordeste 0 -- -- 88
2019-06-25 19:00:00 21.9 19 Norte 37 Nordeste 0 -- -- 85
2019-06-25 18:00:00 22.5 17 Norte 34 Norte 0 -- -- 84
2019-06-25 17:00:00 22.4 18 Norte 34 Norte 0 -- -- 84
2019-06-25 16:00:00 24 13 Norte 22 Norte 0 -- -- 77
2019-06-25 15:00:00 27 6 Este 18 Noroeste 0 -- -- 57
2019-06-25 14:00:00 26 6 Nordeste 18 Norte 0 -- -- 63
2019-06-25 13:00:00 25.7 8 Sur 17 Sur 0 -- -- 57
2019-06-25 12:00:00 25 5 Sur 11 Sur 0 -- -- 58
2019-06-25 11:00:00 22.7 2 Sudeste 5 Nordeste 0 -- -- 60
2019-06-25 10:00:00 19.9 0 Calma 5 Sur 0 -- -- 70
2019-06-25 09:00:00 16.2 0 Calma 2 Este 0 -- -- 94
2019-06-25 08:00:00 14.2 0 Calma 3 Noroeste 0 -- -- 99
2019-06-25 07:00:00 12.7 0 Calma 2 Noroeste 0 -- -- 100
2019-06-25 06:00:00 12.7 0 Calma 2 Noroeste 0 -- -- 100
2019-06-25 05:00:00 12.7 0 Calma 3 Oeste 0 -- -- 100
2019-06-25 04:00:00 12.7 0 Calma 3 Oeste 0 -- -- 100
2019-06-25 03:00:00 13.1 0 Calma 2 Nordeste 0 -- -- 100
2019-06-25 02:00:00 14.2 0 Calma 3 Nordeste 0 -- -- 100
2019-06-25 01:00:00 14.1 0 Calma 6 Noroeste 0 -- -- 99
2019-06-25 00:00:00 15 0 Calma 4 Nordeste 0 -- -- 95
2019-06-24 23:00:00 15.9 0 Calma 17 Norte 0 -- -- 95
2019-06-24 22:00:00 18 2 Norte 12 Norte 0 -- -- 85
2019-06-24 21:00:00 19.6 2 Sudoeste 10 Norte 0 -- -- 72
2019-06-24 20:00:00 21.2 3 Norte 8 Nordeste 0 -- -- 58
2019-06-24 19:00:00 24.8 4 Este 15 Sudoeste 0 -- -- 51
2019-06-24 18:00:00 25.9 6 Sudeste 26 Sur 0 -- -- 36
2019-06-24 17:00:00 25.2 7 Sur 22 Sudoeste 0 -- -- 38
2019-06-24 16:00:00 24.4 4 Sudoeste 21 Sudeste 0 -- -- 40
2019-06-24 15:00:00 25.3 8 Sur 27 Sur 0 -- -- 40
2019-06-24 14:00:00 24.8 11 Sudoeste 30 Sudoeste 0 -- -- 39
2019-06-24 13:00:00 24 12 Sur 29 Sur 0 -- -- 42
2019-06-24 12:00:00 23.7 21 Sur 46 Sur 0 -- -- 42
2019-06-24 11:00:00 23 10 Sur 28 Sur 0 -- -- 47
2019-06-24 10:00:00 21.6 10 Sur 23 Sudeste 0 -- -- 48
2019-06-24 09:00:00 21 9 Sudeste 27 Este 0 -- -- 44
2019-06-24 08:00:00 20.4 7 Sudeste 18 Sudeste 0 -- -- 44
2019-06-24 07:00:00 20.3 9 Sur 30 Sur 0 -- -- 40
2019-06-24 06:00:00 21 14 Sur 30 Sudeste 0 -- -- 41
2019-06-24 05:00:00 20.9 13 Sudeste 29 Sudeste 0 -- -- 47
2019-06-24 04:00:00 20.8 9 Sudeste 21 Sudeste 0 -- -- 52
2019-06-24 03:00:00 20 5 Nordeste 14 Este 0 -- -- 62
2019-06-24 02:00:00 15 0 Calma 3 Noroeste 0 -- -- 97
2019-06-24 01:00:00 15.8 2 Norte 4 Nordeste 0 -- -- 99
2019-06-24 00:00:00 16.4 0 Calma 4 Noroeste 0 -- -- 100
2019-06-23 23:00:00 17.5 3 Este 17 Nordeste 0 -- -- 99
2019-06-23 22:00:00 19.4 6 Norte 21 Norte 0 -- -- 91
2019-06-23 21:00:00 20.1 9 Norte 27 Norte 0 -- -- 90
2019-06-23 20:00:00 22.2 10 Nordeste 33 Norte 0 -- -- 82
2019-06-23 19:00:00 22.1 15 Norte 28 Norte 0 -- -- 84
2019-06-23 18:00:00 26 7 Nordeste 17 Sudoeste 0 -- -- 60
2019-06-23 17:00:00 27.3 9 Sudeste 27 Sur 0 -- -- 45
2019-06-23 16:00:00 27 12 Sur 27 Sur 0 -- -- 46
2019-06-23 15:00:00 26.4 15 Sur 30 Sur 0 -- -- 50
2019-06-23 14:00:00 25.2 18 Sur 28 Sur 0 -- -- 51
2019-06-23 13:00:00 24.3 16 Sur 36 Sur 0 -- -- 59
2019-06-23 12:00:00 23.5 18 Sur 30 Sur 0 -- -- 62
2019-06-23 11:00:00 21.9 17 Sur 27 Sur 0 -- -- 59
2019-06-23 10:00:00 21.1 2 Sudeste 10 Este 0 -- -- 62
2019-06-23 09:00:00 17.8 0 Calma 7 Oeste 0 -- -- 67
2019-06-23 08:00:00 17.8 3 Oeste 9 Sudeste 0 -- -- 64
2019-06-23 07:00:00 18.8 4 Sudeste 27 Este 0 -- -- 54
2019-06-23 06:00:00 19.3 6 Sudeste 26 Sudeste 0 -- -- 50
2019-06-23 05:00:00 18.5 9 Este 24 Sudeste 0 -- -- 52
2019-06-23 04:00:00 18 6 Este 25 Sudeste 0 -- -- 55
2019-06-23 03:00:00 18.8 8 Sudeste 28 Sudeste 0 -- -- 53
2019-06-23 02:00:00 17.2 4 Este 11 Sudeste 0 -- -- 61
2019-06-23 01:00:00 17.3 3 Sudoeste 9 Sur 0 -- -- 60
2019-06-23 00:00:00 16.1 3 Noroeste 6 Norte 0 -- -- 73
2019-06-22 23:00:00 15.7 3 Norte 6 Norte 0 -- -- 77
2019-06-22 22:00:00 16.3 3 Noroeste 8 Norte 0 -- -- 77
2019-06-22 21:00:00 17.7 3 Norte 9 Norte 0 -- -- 74
2019-06-22 20:00:00 20.2 3 Norte 12 Norte 0 -- -- 71
2019-06-22 19:00:00 22.9 2 Nordeste 19 Sudeste 0 -- -- 59
2019-06-22 18:00:00 24.3 5 Sur 13 Oeste 0 -- -- 44
2019-06-22 17:00:00 24.3 5 Sur 21 Sur 0 -- -- 50
2019-06-22 16:00:00 23.1 8 Sur 21 Sur 0 -- -- 50
2019-06-22 15:00:00 22.5 6 Sudoeste 23 Sudoeste 0 -- -- 61
2019-06-22 14:00:00 21.3 11 Sudoeste 24 Sudoeste 0 -- -- 56
2019-06-22 13:00:00 20.6 10 Sudoeste 21 Sur 0 -- -- 60
2019-06-22 12:00:00 19.1 9 Sur 17 Sur 0 -- -- 57
2019-06-22 11:00:00 18.5 4 Sudeste 10 Sudeste 0 -- -- 62
2019-06-22 10:00:00 16.1 2 Nordeste 6 Nordeste 0 -- -- 78
2019-06-22 09:00:00 11.8 0 Calma 4 Sudoeste 0 -- -- 98
2019-06-22 08:00:00 7.2 0 Calma 2 Nordeste 0 -- -- 100
2019-06-22 07:00:00 6.6 0 Calma 4 Sudeste 0 -- -- 100
2019-06-22 06:00:00 6.2 0 Calma 4 Norte 0 -- -- 100
2019-06-22 05:00:00 6.8 0 Calma 14 Norte 0 -- -- 100
2019-06-22 04:00:00 8.6 5 Noroeste 24 Norte 0 -- -- 100
2019-06-22 03:00:00 9.1 11 Norte 26 Norte 0 -- -- 100
2019-06-22 02:00:00 9.2 6 Nordeste 16 Nordeste 0 -- -- 100
2019-06-22 01:00:00 9.3 9 Este 22 Este 0 -- -- 100
2019-06-22 00:00:00 9.3 3 Norte 22 Este 0 -- -- 100
2019-06-21 23:00:00 9.4 8 Este 19 Nordeste 0 -- -- 100
2019-06-21 22:00:00 9.5 3 Oeste 19 Nordeste 0 -- -- 100
2019-06-21 21:00:00 9.7 5 Sudeste 20 Este 0 -- -- 100
2019-06-21 20:00:00 9.8 7 Este 21 Este 0 -- -- 100
2019-06-21 19:00:00 10.1 5 Sudoeste 26 Este 0 -- -- 100
2019-06-21 18:00:00 10.3 9 Este 31 Este 0 -- -- 100
2019-06-21 17:00:00 11.3 5 Sudeste 18 Este 0 -- -- 99
2019-06-21 16:00:00 12 9 Noroeste 26 Norte 0 -- -- 93
2019-06-21 15:00:00 11.8 6 Noroeste 23 Noroeste 0 -- -- 96
2019-06-21 14:00:00 10.9 5 Sur 18 Sudeste 0 -- -- 100
2019-06-21 13:00:00 10.4 5 Sudoeste 30 Norte 0 -- -- 100
2019-06-21 12:00:00 9.8 9 Noroeste 25 Norte 0 -- -- 100
2019-06-21 11:00:00 9.7 10 Norte 24 Norte 0 -- -- 100
2019-06-21 10:00:00 9.8 11 Norte 26 Norte 0 -- -- 100
2019-06-21 09:00:00 9.6 9 Norte 24 Norte 0.2 -- -- 100
2019-06-21 08:00:00 9.6 8 Nordeste 22 Este 0 -- -- 100
2019-06-21 07:00:00 9.4 9 Norte 25 Norte 0 -- -- 100
2019-06-21 06:00:00 9.4 13 Norte 27 Norte 0.2 -- -- 100
2019-06-21 05:00:00 9.9 8 Nordeste 24 Norte 0 -- -- 100
2019-06-21 04:00:00 10 9 Norte 22 Norte 0.2 -- -- 100
2019-06-21 03:00:00 10.3 8 Norte 35 Norte 1.6 -- -- 100
2019-06-21 02:00:00 10.2 12 Norte 31 Noroeste 0.2 -- -- 100
2019-06-21 01:00:00 10.6 17 Norte 31 Norte 1.4 -- -- 100
2019-06-21 00:00:00 10.9 9 Norte 23 Norte 0.8 -- -- 100
2019-06-20 23:00:00 11.1 11 Norte 28 Norte 0.4 -- -- 100
2019-06-20 22:00:00 11.2 10 Norte 34 Norte 1 -- -- 100
2019-06-20 21:00:00 11.5 9 Norte 21 Noroeste 0.8 -- -- 100
2019-06-20 20:00:00 11.7 5 Este 26 Este 0.6 -- -- 100
2019-06-20 19:00:00 11.8 4 Sudoeste 27 Norte 0.4 -- -- 100
2019-06-20 18:00:00 12 13 Norte 29 Norte 0 -- -- 100
2019-06-20 17:00:00 11.8 9 Norte 24 Norte 0 -- -- 100
2019-06-20 16:00:00 11.9 11 Norte 36 Norte 0 -- -- 100
2019-06-20 15:00:00 12.9 14 Norte 31 Norte 0 -- -- 99
2019-06-20 14:00:00 12 15 Norte 27 Norte 0 -- -- 100
2019-06-20 13:00:00 12 15 Norte 29 Norte 0 -- -- 100
2019-06-20 12:00:00 12.3 10 Norte 24 Norte 0 -- -- 100
2019-06-20 11:00:00 12.1 10 Norte 24 Norte 0 -- -- 100
2019-06-20 10:00:00 11.7 10 Norte 25 Norte 0 -- -- 100
2019-06-20 09:00:00 11.5 4 Nordeste 15 Este 0.4 -- -- 100
2019-06-20 08:00:00 11.2 6 Este 17 Este 0.4 -- -- 100
2019-06-20 07:00:00 11.3 5 Este 15 Este 0.2 -- -- 100
2019-06-20 06:00:00 11.2 5 Este 20 Este 0 -- -- 100
2019-06-20 05:00:00 11.1 5 Este 19 Este 0.2 -- -- 100
2019-06-20 04:00:00 11.1 5 Nordeste 25 Norte 0 -- -- 100
2019-06-20 03:00:00 11.1 6 Norte 21 Noroeste 0 -- -- 100
2019-06-20 02:00:00 11.2 7 Norte 28 Norte 0 -- -- 100
2019-06-20 01:00:00 11.3 13 Norte 29 Norte 0 -- -- 100
2019-06-20 00:00:00 11.6 14 Norte 33 Norte 0 -- -- 100
2019-06-19 23:00:00 12 16 Norte 30 Norte 0 -- -- 99
2019-06-19 22:00:00 12.8 21 Norte 34 Noroeste 0 -- -- 98
2019-06-19 21:00:00 14.4 14 Norte 31 Norte 0 -- -- 96
2019-06-19 20:00:00 16.1 14 Norte 26 Norte 0 -- -- 92
2019-06-19 19:00:00 18.2 13 Norte 28 Norte 0 -- -- 84
2019-06-19 18:00:00 18.6 15 Norte 25 Norte 0 -- -- 81
2019-06-19 17:00:00 21.3 6 Sudoeste 17 Sudoeste 0 -- -- 55
2019-06-19 16:00:00 20.6 4 Sudoeste 21 Sudoeste 0 -- -- 55
2019-06-19 15:00:00 20.3 7 Sudoeste -- -- -- -- -- 58
2019-06-19 14:00:00 20 5 Sudoeste 23 Sur 0 -- -- 65
2019-06-19 13:00:00 19.5 13 Sur 21 Sur 0 -- -- 65
2019-06-19 12:00:00 19.2 8 Sudoeste 18 Sudoeste 0 -- -- 66
2019-06-19 11:00:00 18.3 7 Sudoeste 21 Sudoeste 0 -- -- 66
2019-06-19 10:00:00 17.8 11 Sur 19 Sudoeste 0 -- -- 69
2019-06-19 09:00:00 17.1 5 Sur 12 Sudoeste 0 -- -- 73
2019-06-19 08:00:00 13.1 0 Calma 3 Norte 0 -- -- 88
2019-06-19 07:00:00 12.6 0 Calma -- -- 0 -- -- 87
2019-06-19 06:00:00 12.2 0 Calma 4 Norte 0 -- -- 85
2019-06-19 05:00:00 12.6 0 Calma 4 Norte 0 -- -- 82
2019-06-19 04:00:00 13 3 Norte 5 Oeste 0 -- -- 81
2019-06-19 03:00:00 13.2 0 Calma 4 Nordeste 0 -- -- 78
2019-06-19 02:00:00 14.9 3 Norte 5 Norte 0 -- -- 68
2019-06-19 01:00:00 15.8 2 Norte 6 Nordeste 0 -- -- 62
2019-06-19 00:00:00 18 0 Calma 12 Oeste 0 -- -- 45
2019-06-18 23:00:00 19 3 Noroeste 7 Oeste 0 -- -- 42
2019-06-18 22:00:00 19 4 Norte 6 Norte 0 -- -- 42
2019-06-18 21:00:00 21.1 3 Oeste 16 Sudoeste 0 -- -- 40
2019-06-18 20:00:00 25.3 10 Sudoeste 30 Sur 0 -- -- 29
2019-06-18 19:00:00 25.4 15 Sur 36 Sur 0 -- -- 36
2019-06-18 18:00:00 26.4 15 Sur 35 Sur 0 -- -- 36
2019-06-18 17:00:00 26 16 Sur 43 Sur 0 -- -- 35
2019-06-18 16:00:00 25.9 21 Sur 42 Sur 0 -- -- 37
2019-06-18 15:00:00 25.2 21 Sur 46 Sudoeste 0 -- -- 38
2019-06-18 14:00:00 24.7 19 Sur 44 Sur 0 -- -- 43
2019-06-18 13:00:00 23.7 24 Sur 41 Sur 0 -- -- 45
2019-06-18 12:00:00 22.9 21 Sur 39 Sur 0 -- -- 49
2019-06-18 11:00:00 22.6 20 Sur 37 Sur 0 -- -- 48
2019-06-18 10:00:00 21.8 13 Sur 26 Este 0 -- -- 46
2019-06-18 09:00:00 20.5 7 Este 18 Este 0 -- -- 50
2019-06-18 08:00:00 18.4 6 Este 14 Nordeste 0 -- -- 52
2019-06-18 07:00:00 15.9 2 Norte 6 Nordeste 0 -- -- 59
2019-06-18 06:00:00 14.9 3 Norte 5 Noroeste 0 -- -- 70
2019-06-18 05:00:00 16.5 3 Noroeste 14 Sudeste 0 -- -- 58
2019-06-18 04:00:00 19.3 7 Este 19 Este 0 -- -- 49
2019-06-18 03:00:00 19.8 9 Este 20 Sudeste 0 -- -- 47
2019-06-18 02:00:00 16.4 3 Oeste 8 Noroeste 0 -- -- 68
2019-06-18 01:00:00 15.8 0 Calma 6 Norte 0 -- -- 77
2019-06-18 00:00:00 15.4 2 Norte 4 Noroeste 0 -- -- 74
2019-06-17 23:00:00 16.3 3 Norte 4 Norte 0 -- -- 73
2019-06-17 22:00:00 17.3 2 Norte 14 Noroeste 0 -- -- 74
2019-06-17 21:00:00 20 7 Norte 21 Norte 0 -- -- 69
2019-06-17 20:00:00 21 12 Norte 24 Nordeste 0 -- -- 68
2019-06-17 19:00:00 22 12 Norte 24 Noroeste 0 -- -- 69
2019-06-17 18:00:00 24.5 8 Norte 21 Nordeste 0 -- -- 57
2019-06-17 17:00:00 25.7 8 Sur 23 Sur 0 -- -- 35
2019-06-17 16:00:00 25.2 12 Sur 22 Sur 0 -- -- 37
2019-06-17 15:00:00 24.3 13 Sur 24 Sur 0 -- -- 47
2019-06-17 14:00:00 23.8 10 Sudoeste 24 Sur 0 -- -- 46
2019-06-17 13:00:00 23.4 12 Sur 26 Sur 0 -- -- 51
2019-06-17 12:00:00 22.2 14 Sur 26 Sur 0 -- -- 46
2019-06-17 11:00:00 21.9 7 Sudeste 15 Sudeste 0 -- -- 56
2019-06-17 10:00:00 20.7 0 Calma 5 Sur 0 -- -- 59
2019-06-17 09:00:00 17.4 0 Calma 4 Nordeste 0 -- -- 73
2019-06-17 08:00:00 13.1 0 Calma 2 Norte 0 -- -- 88
2019-06-17 07:00:00 10 0 Calma 2 Norte 0 -- -- 91
2019-06-17 06:00:00 10 0 Calma 3 Norte 0 -- -- 93
2019-06-17 05:00:00 9.5 0 Calma 4 Norte 0 -- -- 97
2019-06-17 04:00:00 10.4 2 Norte 4 Norte 0 -- -- 94
2019-06-17 03:00:00 11.2 2 Noroeste 5 Noroeste 0 -- -- 89
2019-06-17 02:00:00 11 0 Calma 5 Noroeste 0 -- -- 93
2019-06-17 01:00:00 11.6 0 Calma 5 Norte 0 -- -- 89
2019-06-17 00:00:00 11.8 0 Calma 5 Noroeste 0 -- -- 94
2019-06-16 23:00:00 13 3 Noroeste 19 Nordeste 0 -- -- 90
2019-06-16 22:00:00 15.4 8 Norte 26 Nordeste 0 -- -- 79
2019-06-16 21:00:00 16.2 15 Norte 28 Nordeste 0 -- -- 75
2019-06-16 20:00:00 16.9 17 Norte 32 Norte 0 -- -- 75
2019-06-16 19:00:00 17.9 17 Norte 30 Norte 0 -- -- 74
2019-06-16 18:00:00 18.4 15 Norte 29 Norte 0 -- -- 77
2019-06-16 17:00:00 19 13 Norte 25 Norte 0 -- -- 76
2019-06-16 16:00:00 20.4 11 Nordeste 23 Nordeste 0 -- -- 68
2019-06-16 15:00:00 19.6 14 Norte 32 Norte 0 -- -- 71
2019-06-16 14:00:00 20.8 7 Sur 21 Sudoeste 0 -- -- 43
2019-06-16 13:00:00 20 9 Sudoeste 22 Sudoeste 0 -- -- 45
2019-06-16 12:00:00 19.5 6 Sudeste 15 Sur 0 -- -- 46
2019-06-16 11:00:00 18.1 5 Sur 10 Sur 0 -- -- 56
2019-06-16 10:00:00 15.9 2 Sudeste 5 Sudeste 0 -- -- 77
2019-06-16 09:00:00 12.6 0 Calma 3 Oeste 0 -- -- 82
2019-06-16 08:00:00 7.9 0 Calma 4 Noroeste 0 -- -- 100
2019-06-16 07:00:00 5.3 2 Noroeste 4 Noroeste 0 -- -- 100
2019-06-16 06:00:00 5.8 2 Norte 7 Sudoeste 0 -- -- 100
2019-06-16 05:00:00 6.2 0 Calma 16 Norte 0 -- -- 100
2019-06-16 04:00:00 8 9 Norte 24 Norte 0 -- -- 99
2019-06-16 03:00:00 8.3 11 Norte 21 Norte 0 -- -- 100
2019-06-16 02:00:00 9.2 9 Nordeste 21 Nordeste 0 -- -- 93
2019-06-16 01:00:00 9.3 8 Norte 20 Noroeste 0 -- -- 96
2019-06-16 00:00:00 9.6 7 Norte 23 Noroeste 0 -- -- 95
2019-06-15 23:00:00 9.9 7 Nordeste 21 Este 0 -- -- 95
2019-06-15 22:00:00 10.1 4 Nordeste 17 Norte 0 -- -- 93
2019-06-15 21:00:00 11.1 5 Norte 33 Noroeste 0 -- -- 85
2019-06-15 20:00:00 12 12 Norte 27 Noroeste 0 -- -- 78
2019-06-15 19:00:00 13 12 Norte 30 Norte 0 -- -- 77
2019-06-15 18:00:00 12.9 12 Norte 27 Noroeste 0 -- -- 78
2019-06-15 17:00:00 13.2 11 Norte 27 Norte 0 -- -- 79
2019-06-15 16:00:00 13.9 7 Norte 26 Noroeste 0 -- -- 80
2019-06-15 15:00:00 12.7 13 Noroeste 29 Noroeste 0 -- -- 83
2019-06-15 14:00:00 13 8 Noroeste 22 Norte 0 -- -- 82
2019-06-15 13:00:00 11.3 10 Norte 21 Norte 0 -- -- 90
2019-06-15 12:00:00 10.3 12 Norte 24 Norte 0 -- -- 91
2019-06-15 11:00:00 8.7 10 Norte 20 Norte 0 -- -- 100
2019-06-15 10:00:00 8.8 9 Norte 18 Norte 0 -- -- 100
2019-06-15 09:00:00 8.1 5 Norte 12 Nordeste 0 -- -- 100
2019-06-15 08:00:00 7.6 0 Calma 12 Oeste 0.2 -- -- 100
2019-06-15 07:00:00 7.9 4 Norte 16 Nordeste 0.6 -- -- 100
2019-06-15 06:00:00 8.4 5 Sur 18 Este 0.4 -- -- 100
2019-06-15 05:00:00 8.7 5 Sudeste 15 Sudeste 0.4 -- -- 100
2019-06-15 04:00:00 8.8 5 Sudeste 18 Norte 0.6 -- -- 100
2019-06-15 03:00:00 9 10 Noroeste 23 Noroeste 0.4 -- -- 100
2019-06-15 02:00:00 9.2 8 Noroeste 27 Noroeste 0.8 -- -- 100
2019-06-15 01:00:00 9.3 9 Noroeste 33 Norte 0.4 -- -- 100
2019-06-15 00:00:00 9.7 6 Este 22 Este 0.6 -- -- 100
2019-06-14 23:00:00 9.9 5 Sudeste 21 Este 0.4 -- -- 100
2019-06-14 22:00:00 10 6 Nordeste 26 Noroeste 0.2 -- -- 100
2019-06-14 21:00:00 10.4 6 Este 19 Noroeste 0 -- -- 100
2019-06-14 20:00:00 11 6 Norte 32 Norte 0 -- -- 100
2019-06-14 19:00:00 11.3 15 Norte 35 Nordeste 0 -- -- 100
2019-06-14 18:00:00 12.3 17 Norte 32 Nordeste 0 -- -- 98
2019-06-14 17:00:00 16 9 Norte 26 Norte 0 -- -- 86
2019-06-14 16:00:00 15.9 9 Nordeste 28 Norte 0 -- -- 91
2019-06-14 15:00:00 15.7 12 Norte 21 Norte 0 -- -- 84
2019-06-14 14:00:00 16.7 4 Nordeste 15 Norte 0 -- -- 80
2019-06-14 13:00:00 14.4 7 Norte 23 Norte 0 -- -- 85
2019-06-14 12:00:00 15.1 4 Este 9 Sudoeste 0 -- -- 88
2019-06-14 11:00:00 13.7 3 Sudoeste 8 Sudeste 0 -- -- 90
2019-06-14 10:00:00 10.9 0 Calma 7 Sudoeste 0 -- -- 97
2019-06-14 09:00:00 9.1 2 Oeste 8 Nordeste 0 -- -- 100
2019-06-14 08:00:00 8.1 3 Nordeste 22 Nordeste 0 -- -- 100
2019-06-14 07:00:00 8.1 2 Norte 21 Norte 0 -- -- 100
2019-06-14 06:00:00 8.1 6 Norte 16 Norte 0 -- -- 100
2019-06-14 05:00:00 8.2 6 Norte 16 Norte 0 -- -- 100
2019-06-14 04:00:00 8.6 2 Norte 13 Norte 0 -- -- 100
2019-06-14 03:00:00 8.7 4 Nordeste 20 Nordeste 0 -- -- 100
2019-06-14 02:00:00 8.9 7 Norte 17 Norte 0 -- -- 100
2019-06-14 01:00:00 9.2 8 Norte 19 Norte 0 -- -- 100
2019-06-14 00:00:00 9.5 8 Norte 20 Nordeste 0 -- -- 100
2019-06-13 23:00:00 10.1 9 Norte 30 Noroeste 0 -- -- 100
2019-06-13 22:00:00 11.2 14 Norte 30 Norte 0 -- -- 100
2019-06-13 21:00:00 12.3 13 Norte 37 Norte 0.6 -- -- 99
2019-06-13 20:00:00 14.4 13 Norte 31 Norte 0 -- -- 90
2019-06-13 19:00:00 16.7 12 Norte 35 Norte 0 -- -- 79
2019-06-13 18:00:00 16.3 12 Norte 31 Nordeste 0 -- -- 77
2019-06-13 17:00:00 21.2 15 Sur 31 Sur 0 -- -- 49
2019-06-13 16:00:00 20.9 13 Sur 35 Sur 0 -- -- 53
2019-06-13 15:00:00 18.6 13 Sur 45 Sur 0 -- -- 61
2019-06-13 14:00:00 18.4 17 Sur 35 Sur 0 -- -- 65
2019-06-13 13:00:00 16.8 21 Sur 38 Sur 0 -- -- 66
2019-06-13 12:00:00 16 18 Sur 42 Sur 0 -- -- 68
2019-06-13 11:00:00 15.1 17 Sur 37 Sur 0 -- -- 69
2019-06-13 10:00:00 13.1 10 Sur 25 Sudeste 0 -- -- 65
2019-06-13 09:00:00 9.8 3 Oeste 10 Noroeste 0 -- -- 80
2019-06-13 08:00:00 8.1 0 Calma 6 Oeste 0 -- -- 91
2019-06-13 07:00:00 5 2 Oeste 8 Norte 0 -- -- 91
2019-06-13 06:00:00 8 5 Norte 13 Nordeste 0 -- -- 80
2019-06-13 05:00:00 6.7 5 Nordeste 9 Este 0 -- -- 99
2019-06-13 04:00:00 3.9 0 Calma 4 Norte 0 -- -- 100
2019-06-13 03:00:00 4.7 0 Calma 3 Noroeste 0 -- -- 100
2019-06-13 02:00:00 5.4 0 Calma 3 Noroeste 0 -- -- 100
2019-06-13 01:00:00 6.6 2 Noroeste 18 Norte 0 -- -- 100
2019-06-13 00:00:00 7.3 6 Norte 22 Nordeste 0 -- -- 100
2019-06-12 23:00:00 7.5 12 Norte 28 Norte 0 -- -- 100
2019-06-12 22:00:00 7.6 13 Norte 28 Norte 0 -- -- 99
2019-06-12 21:00:00 8.1 14 Norte 30 Norte 0 -- -- 95
2019-06-12 20:00:00 9.4 17 Norte 32 Norte 0 -- -- 91
2019-06-12 19:00:00 10.9 14 Norte 27 Norte 0 -- -- 86
2019-06-12 18:00:00 12.4 14 Norte 27 Norte 0 -- -- 75
2019-06-12 17:00:00 14.2 4 Sur 14 Sur 0 -- -- 50
2019-06-12 16:00:00 14 6 Sudoeste 23 Sur 0 -- -- 56
2019-06-12 15:00:00 12.7 5 Sur 18 Sur 0 -- -- 59
2019-06-12 14:00:00 11.8 5 Sudoeste 21 Oeste 0 -- -- 63
2019-06-12 13:00:00 12 9 Sudoeste 28 Sur 0 -- -- 61
2019-06-12 12:00:00 11 10 Sudoeste 24 Sudoeste 0 -- -- 66
2019-06-12 11:00:00 8.2 8 Sudoeste 20 Sur 0 -- -- 77
2019-06-12 10:00:00 6.8 4 Sur 13 Sur 0 -- -- 91
2019-06-12 09:00:00 4.7 0 Calma 5 Sudeste 0 -- -- 100
2019-06-12 08:00:00 3.4 0 Calma 4 Noroeste 0 -- -- 100
2019-06-12 07:00:00 2.5 2 Norte 6 Norte 0 -- -- 100
2019-06-12 06:00:00 2 0 Calma 5 Oeste 0 -- -- 100
2019-06-12 05:00:00 2.1 0 Calma 4 Norte 0 -- -- 100
2019-06-12 04:00:00 2.3 2 Norte 5 Norte 0 -- -- 100
2019-06-12 03:00:00 2.1 3 Norte 4 Sudeste 0 -- -- 100
2019-06-12 02:00:00 2.3 2 Noroeste 5 Norte 0 -- -- 100
2019-06-12 01:00:00 2.9 3 Norte 6 Norte 0 -- -- 100
2019-06-12 00:00:00 4.1 3 Norte 7 Sudoeste 0 -- -- 99
2019-06-11 23:00:00 5.5 3 Sudoeste 11 Noroeste 0 -- -- 96
2019-06-11 22:00:00 5.8 0 Calma 12 Sudoeste 0 -- -- 97
2019-06-11 21:00:00 5.9 3 Oeste 26 Oeste 1 -- -- 97
2019-06-11 20:00:00 6.3 3 Oeste 21 Norte 0.4 -- -- 95
2019-06-11 19:00:00 7 3 Nordeste 18 Nordeste 0.6 -- -- 93
2019-06-11 18:00:00 7.5 5 Sudeste 15 Nordeste 0 -- -- 92
2019-06-11 17:00:00 7 6 Norte 30 Nordeste 0.4 -- -- 89
2019-06-11 16:00:00 7.4 5 Oeste 23 Nordeste 0.2 -- -- 92
2019-06-11 15:00:00 7.8 5 Nordeste 24 Nordeste 1.2 -- -- 86
2019-06-11 14:00:00 9.2 6 Nordeste 16 Nordeste 1 -- -- 83
2019-06-11 13:00:00 7.4 6 Nordeste 20 Norte 0.6 -- -- 87
2019-06-11 12:00:00 6 6 Norte 18 Nordeste 1 -- -- 89
2019-06-11 11:00:00 6.7 5 Norte 17 Nordeste 0.2 -- -- 89
2019-06-11 10:00:00 6.5 3 Norte 21 Este 0 -- -- 93
2019-06-11 09:00:00 5.7 3 Nordeste 8 Sudoeste 0.2 -- -- 99
2019-06-11 08:00:00 5.3 3 Sur 11 Oeste 0.4 -- -- 96
2019-06-11 07:00:00 5.2 0 Calma 17 Oeste 0.2 -- -- 99
2019-06-11 06:00:00 5.2 0 Calma 6 Norte 0 -- -- 100
2019-06-11 05:00:00 5.2 0 Calma 5 Noroeste 0.6 -- -- 100
2019-06-11 04:00:00 5.4 3 Noroeste 10 Norte 0 -- -- 98
2019-06-11 03:00:00 5.1 3 Noroeste 6 Noroeste 0 -- -- 100
2019-06-11 02:00:00 5.4 0 Calma 4 Sudoeste 0 -- -- 100
2019-06-11 01:00:00 6.1 3 Sudeste 13 Este 0 -- -- 97
2019-06-11 00:00:00 5.8 3 Noroeste 7 Sudoeste 0 -- -- 98
2019-06-10 23:00:00 5.9 3 Sudoeste 21 Norte 0 -- -- 98
2019-06-10 22:00:00 6.3 12 Norte 23 Noroeste 0.4 -- -- 91
2019-06-10 21:00:00 7 4 Oeste 16 Norte 0 -- -- 97
2019-06-10 20:00:00 7.5 3 Sur 15 Oeste 0 -- -- 98
2019-06-10 19:00:00 7.5 3 Sudoeste 9 Sudeste 0 -- -- 98
2019-06-10 18:00:00 7.5 3 Sur 13 Sudeste 0 -- -- 97
2019-06-10 17:00:00 7.6 6 Sudeste 19 Este 0 -- -- 98
2019-06-10 16:00:00 7.4 8 Este 17 Este 0.4 -- -- 98
2019-06-10 15:00:00 7.6 3 Norte 17 Noroeste 0 -- -- 96
2019-06-10 14:00:00 8.3 6 Sudeste 21 Sudeste 0 -- -- 96
2019-06-10 13:00:00 7.4 9 Este 33 Este 0 -- -- 96
2019-06-10 12:00:00 7.6 8 Sudeste 21 Este 0.2 -- -- 99
2019-06-10 11:00:00 7.2 8 Sudeste 25 Este 0.2 -- -- 100
2019-06-10 10:00:00 7.1 10 Sudeste 23 Sudeste 0.4 -- -- 100
2019-06-10 09:00:00 6.9 8 Sudeste 19 Este 0.8 -- -- 100
2019-06-10 08:00:00 6.7 5 Sudeste 20 Este 0.2 -- -- 100
2019-06-10 07:00:00 6.7 9 Sudeste 23 Este 0.6 -- -- 100
2019-06-10 06:00:00 7.1 6 Sudeste 23 Este 0.4 -- -- 100
2019-06-10 05:00:00 7.5 7 Sudeste 25 Este 0.4 -- -- 100
2019-06-10 04:00:00 7.5 5 Sur 18 Este 1 -- -- 100
2019-06-10 03:00:00 7.5 6 Sudoeste 23 Noroeste 0.4 -- -- 100
2019-06-10 02:00:00 7.8 7 Sur 23 Noroeste 0.2 -- -- 100
2019-06-10 01:00:00 8.5 4 Sudoeste 18 Noroeste 0.2 -- -- 100
2019-06-10 00:00:00 8.7 11 Noroeste 34 Noroeste 0 -- -- 100
2019-06-09 23:00:00 9.1 6 Noroeste 29 Norte 0.2 -- -- 100
2019-06-09 22:00:00 9.4 14 Norte 32 Norte 0.2 -- -- 100
2019-06-09 21:00:00 9.7 6 Noroeste 22 Nordeste 0.4 -- -- 100
2019-06-09 20:00:00 10.3 8 Norte 20 Norte 0 -- -- 100
2019-06-09 19:00:00 10.6 6 Norte 16 Sudeste 0 -- -- 100
2019-06-09 18:00:00 11.6 6 Sudeste 19 Este 0 -- -- 96
2019-06-09 17:00:00 12.4 10 Norte 30 Norte 0 -- -- 94
2019-06-09 16:00:00 14.5 17 Norte 36 Norte 0 -- -- 87
2019-06-09 15:00:00 14.5 20 Norte 32 Nordeste 0 -- -- 84
2019-06-09 14:00:00 16.1 15 Norte 32 Norte 0 -- -- 79
2019-06-09 13:00:00 19.3 11 Sur 23 Sudoeste 0 -- -- 55
2019-06-09 12:00:00 18.7 7 Sudoeste 17 Sur 0 -- -- 56
2019-06-09 11:00:00 17.6 5 Sur 15 Sur 0 -- -- 67
2019-06-09 10:00:00 15.5 6 Sudoeste 13 Sur 0 -- -- 71
2019-06-09 09:00:00 14.4 0 Calma 5 Norte 0 -- -- 82
2019-06-09 08:00:00 10.3 0 Calma 4 Nordeste 0 -- -- 92
2019-06-09 07:00:00 9.8 0 Calma 4 Noroeste 0 -- -- 88
2019-06-09 06:00:00 10 3 Norte 5 Este 0 -- -- 89
2019-06-09 05:00:00 10.4 2 Norte 6 Norte 0 -- -- 89
2019-06-09 04:00:00 8.4 0 Calma 4 Norte 0 -- -- 98
2019-06-09 03:00:00 8.8 0 Calma 4 Norte 0 -- -- 97
2019-06-09 02:00:00 9.9 3 Noroeste 8 Este 0 -- -- 92
2019-06-09 01:00:00 10.4 0 Calma 12 Norte 0 -- -- 92
2019-06-09 00:00:00 10.6 0 Calma 24 Noroeste 0 -- -- 90
2019-06-08 23:00:00 11.9 12 Norte 28 Norte 0 -- -- 81
2019-06-08 22:00:00 12.1 14 Norte 31 Nordeste 0 -- -- 81
2019-06-08 21:00:00 12.2 13 Norte 30 Nordeste 0 -- -- 82
2019-06-08 20:00:00 12.7 14 Norte 33 Noroeste 0 -- -- 82
2019-06-08 19:00:00 13.3 16 Norte 31 Norte 0 -- -- 80
2019-06-08 18:00:00 13.9 17 Norte 36 Norte 0 -- -- 77
2019-06-08 17:00:00 13.9 18 Norte 36 Nordeste 0 -- -- 74
2019-06-08 16:00:00 14.2 17 Norte 34 Norte 0 -- -- 72
2019-06-08 15:00:00 14.2 17 Norte 32 Nordeste 0 -- -- 70
2019-06-08 14:00:00 14 14 Norte 29 Norte 0 -- -- 70
2019-06-08 13:00:00 14.3 12 Norte 23 Norte 0 -- -- 69
2019-06-08 12:00:00 13.6 8 Norte 21 Norte 0 -- -- 63
2019-06-08 11:00:00 11.8 10 Norte 23 Norte 0 -- -- 65
2019-06-08 10:00:00 10 11 Nordeste 25 Norte 0 -- -- 66
2019-06-08 09:00:00 9 10 Norte 26 Norte 0 -- -- 69
2019-06-08 08:00:00 5.8 2 Oeste 8 Sur 0 -- -- 87
2019-06-08 07:00:00 2.4 2 Oeste 11 Norte 0 -- -- 95
2019-06-08 06:00:00 2.2 0 Calma 13 Norte 0 -- -- 95
2019-06-08 05:00:00 6 7 Norte 21 Norte 0 -- -- 74
2019-06-08 04:00:00 6.4 7 Norte 29 Norte 0 -- -- 73
2019-06-08 03:00:00 6.6 10 Norte 22 Norte 0 -- -- 73
2019-06-08 02:00:00 6 7 Norte 20 Norte 0 -- -- 83
2019-06-08 01:00:00 6.7 10 Norte 19 Norte 0 -- -- 83
2019-06-08 00:00:00 5.6 5 Nordeste 10 Nordeste 0 -- -- 92
2019-06-07 23:00:00 6.2 2 Nordeste 15 Norte 0 -- -- 94
2019-06-07 22:00:00 7.3 5 Noroeste 19 Norte 0 -- -- 88
2019-06-07 21:00:00 7.9 3 Norte 16 Noroeste 0 -- -- 85
2019-06-07 20:00:00 8.9 11 Norte 28 Norte 0 -- -- 79
2019-06-07 19:00:00 10.4 14 Norte 26 Nordeste 0 -- -- 72
2019-06-07 18:00:00 11.4 14 Norte 29 Norte 0 -- -- 73
2019-06-07 17:00:00 12.2 13 Norte 27 Norte 0 -- -- 72
2019-06-07 16:00:00 11.2 11 Norte 24 Sur 0 -- -- 73
2019-06-07 15:00:00 14.5 10 Sur 32 Sur 0 -- -- 55
2019-06-07 14:00:00 13.6 13 Sudoeste 24 Oeste 0 -- -- 52
2019-06-07 13:00:00 12.7 9 Sudoeste 30 Sur 0 -- -- 58
2019-06-07 12:00:00 11.4 14 Sudoeste 28 Sur 0 -- -- 68
2019-06-07 11:00:00 10.3 15 Sudoeste 29 Sur 0 -- -- 71
2019-06-07 10:00:00 9.2 13 Sudoeste 35 Sudoeste 0.2 -- -- 75
2019-06-07 09:00:00 8 9 Sudoeste 33 Sudoeste 0 -- -- 82
2019-06-07 08:00:00 6.3 10 Sudoeste 24 Oeste 0 -- -- 90
2019-06-07 07:00:00 5.8 5 Sudoeste 32 Sudoeste 0 -- -- 95
2019-06-07 06:00:00 6.6 13 Sudoeste 30 Sudoeste 2.8 -- -- 100
2019-06-07 05:00:00 8.2 15 Sudoeste 44 Sur 3.2 -- -- 96
2019-06-07 04:00:00 13.3 20 Sur 45 Sudoeste 0 -- -- 71
2019-06-07 03:00:00 13.8 22 Sur 45 Sudoeste 0 -- -- 67
2019-06-07 02:00:00 14.3 26 Sur 47 Sur 0 -- -- 65
2019-06-07 01:00:00 14.4 25 Sur 53 Sur 0 -- -- 64
2019-06-07 00:00:00 14.9 28 Sur 51 Sudoeste 0 -- -- 59
2019-06-06 23:00:00 14.7 20 Sur 46 Sur 0 -- -- 61
2019-06-06 22:00:00 14.9 16 Sur 50 Sur 0 -- -- 62
2019-06-06 21:00:00 16 28 Sur 55 Sudoeste 0 -- -- 61
2019-06-06 20:00:00 16.5 26 Sur 56 Sur 0 -- -- 59
2019-06-06 19:00:00 16.8 24 Sur 55 Sur 0 -- -- 49
2019-06-06 18:00:00 17.4 26 Sur 54 Sur 0 -- -- 53
2019-06-06 17:00:00 16.3 25 Sur 49 Sur 0 -- -- 51
2019-06-06 16:00:00 17.1 23 Sur 43 Sur 0 -- -- 53
2019-06-06 15:00:00 16.2 25 Sur 45 Sur 0 -- -- 54
2019-06-06 14:00:00 16 19 Sur 37 Sur 0 -- -- 64
2019-06-06 13:00:00 14.4 19 Sur 35 Sudoeste 0 -- -- 67
2019-06-06 12:00:00 12.9 16 Sur 27 Sur 0 -- -- 76
2019-06-06 11:00:00 12 5 Sur 11 Sudoeste 0 -- -- 78
2019-06-06 10:00:00 10.1 3 Sudeste 9 Sur 0 -- -- 81
2019-06-06 09:00:00 7 0 Calma 3 Noroeste 0 -- -- 100
2019-06-06 08:00:00 5.2 0 Calma 3 Noroeste 0 -- -- 100
2019-06-06 07:00:00 4.3 2 Nordeste 4 Norte 0 -- -- 100
2019-06-06 06:00:00 4.2 0 Calma 3 Noroeste 0 -- -- 100
2019-06-06 05:00:00 4.3 0 Calma 4 Sudeste 0 -- -- 100
2019-06-06 04:00:00 4.2 0 Calma 5 Sur 0 -- -- 100
2019-06-06 03:00:00 4.4 0 Calma 9 Nordeste 0 -- -- 100
2019-06-06 02:00:00 5 2 Nordeste 9 Nordeste 0 -- -- 100
2019-06-06 01:00:00 6 6 Nordeste 13 Este 0 -- -- 99
2019-06-06 00:00:00 6 2 Este 8 Este 0 -- -- 100
2019-06-05 23:00:00 5.5 2 Sudoeste 9 Norte 0 -- -- 99
2019-06-05 22:00:00 5.5 2 Sudoeste 10 Norte 0 -- -- 99
2019-06-05 21:00:00 6.8 2 Noroeste 14 Norte 0 -- -- 95
2019-06-05 20:00:00 7.4 4 Noroeste 21 Norte 0 -- -- 93
2019-06-05 19:00:00 7.5 3 Oeste 18 Oeste 0 -- -- 95
2019-06-05 18:00:00 7.6 4 Nordeste 21 Sudoeste 0.2 -- -- 93
2019-06-05 17:00:00 8 4 Norte 20 Nordeste 0 -- -- 93
2019-06-05 16:00:00 7.8 5 Sudoeste 28 Oeste 0.2 -- -- 94
2019-06-05 15:00:00 9 5 Sudoeste 14 Sudoeste 1 -- -- 93
2019-06-05 14:00:00 8.4 3 Nordeste 19 Norte 0 -- -- 94
2019-06-05 13:00:00 7.6 5 Este 17 Oeste 0.8 -- -- 96
2019-06-05 12:00:00 5.9 4 Sur 18 Nordeste 5.4 -- -- 98
2019-06-05 11:00:00 5.7 6 Sur 22 Oeste 6 -- -- 100
2019-06-05 10:00:00 6.4 8 Noroeste 31 Noroeste 5.8 -- -- 100
2019-06-05 09:00:00 6.9 10 Noroeste 32 Noroeste 4.2 -- -- 100
2019-06-05 08:00:00 6.7 12 Noroeste 32 Norte 4.4 -- -- 100
2019-06-05 07:00:00 6.7 14 Norte 30 Norte 10.4 -- -- 100
2019-06-05 06:00:00 6.9 8 Norte 33 Norte 5 -- -- 99
2019-06-05 05:00:00 7.5 5 Norte 31 Norte 3.2 -- -- 100
2019-06-05 04:00:00 7.9 5 Noroeste 19 Este 0.2 -- -- 98
2019-06-05 03:00:00 7.9 14 Norte 31 Norte 0 -- -- 97
2019-06-05 02:00:00 8.1 8 Norte 23 Norte 0 -- -- 92
2019-06-05 01:00:00 8 9 Norte 28 Noroeste 0 -- -- 97
2019-06-05 00:00:00 7.8 13 Norte 29 Norte 0.2 -- -- 98
2019-06-04 23:00:00 8.2 10 Norte 24 Nordeste 1.6 -- -- 100
2019-06-04 22:00:00 9.8 7 Noroeste 31 Noroeste 6.8 -- -- 100
2019-06-04 21:00:00 10.6 11 Noroeste 37 Norte 0.6 -- -- 100
2019-06-04 20:00:00 10.7 6 Noroeste 27 Noroeste 0.2 -- -- 100
2019-06-04 19:00:00 10.8 9 Noroeste 46 Norte 1 -- -- 100
2019-06-04 18:00:00 12.1 19 Norte 48 Norte 3.8 -- -- 100
2019-06-04 17:00:00 13.6 20 Norte 41 Norte 1 -- -- 100
2019-06-04 16:00:00 16.9 19 Norte 35 Norte 0 -- -- 88
2019-06-04 15:00:00 24.9 15 Sur 42 Sudoeste 0 -- -- 42
2019-06-04 14:00:00 24.1 18 Sur 37 Sudoeste 0 -- -- 48
2019-06-04 13:00:00 22.9 22 Sur 38 Sur 0 -- -- 45
2019-06-04 12:00:00 21.8 18 Sur 37 Sur 0 -- -- 46
2019-06-04 11:00:00 20.7 18 Sur 39 Sudeste 0 -- -- 50
2019-06-04 10:00:00 20 13 Sur 33 Sudoeste 0 -- -- 52
2019-06-04 09:00:00 18.8 10 Sudoeste 29 Sur 0 -- -- 52
2019-06-04 08:00:00 15.8 5 Oeste 14 Oeste 0 -- -- 67
2019-06-04 07:00:00 13.7 4 Oeste 8 Oeste 0 -- -- 69
2019-06-04 06:00:00 14.8 2 Este 8 Sudeste 0 -- -- 66
2019-06-04 05:00:00 13.7 3 Noroeste 5 Noroeste 0 -- -- 75
2019-06-04 04:00:00 14.9 2 Noroeste 5 Noroeste 0 -- -- 71
2019-06-04 03:00:00 15.9 2 Noroeste 6 Norte 0 -- -- 67
2019-06-04 02:00:00 15.9 3 Oeste 6 Oeste 0 -- -- 70
2019-06-04 01:00:00 12.7 3 Noroeste 4 Norte 0 -- -- 89
2019-06-04 00:00:00 13.2 0 Calma 3 Noroeste 0 -- -- 92
2019-06-03 23:00:00 13.6 0 Calma 4 Este 0 -- -- 96
2019-06-03 22:00:00 14.6 0 Calma 4 Nordeste 0 -- -- 94
2019-06-03 21:00:00 16 2 Nordeste 9 Norte 0 -- -- 88
2019-06-03 20:00:00 18.8 6 Norte 19 Norte 0 -- -- 77
2019-06-03 19:00:00 19.5 10 Norte 19 Norte 0 -- -- 73
2019-06-03 18:00:00 22.1 10 Norte 17 Norte 0 -- -- 65
2019-06-03 17:00:00 24.6 10 Sudeste 23 Sur 0 -- -- 44
2019-06-03 16:00:00 24.2 9 Sudoeste 23 Sudoeste 0 -- -- 47
2019-06-03 15:00:00 23.9 10 Sudoeste 24 Sudoeste 0 -- -- 54
2019-06-03 14:00:00 23.1 10 Sudoeste 24 Sur 0 -- -- 54
2019-06-03 13:00:00 22.3 6 Sur 16 Sur 0 -- -- 62
2019-06-03 12:00:00 20.1 5 Sur 11 Sur 0 -- -- 66
2019-06-03 11:00:00 20.3 4 Sudoeste 10 Sudoeste 0 -- -- 63
2019-06-03 10:00:00 17.8 3 Sur 7 Oeste 0 -- -- 69
2019-06-03 09:00:00 14.2 2 Sur 3 Sur 0 -- -- 88
2019-06-03 08:00:00 11.7 0 Calma 5 Nordeste 0 -- -- 91
2019-06-03 07:00:00 11.3 0 Calma 6 Sudoeste 0 -- -- 84
2019-06-03 06:00:00 11.5 2 Norte 4 Norte 0 -- -- 88
2019-06-03 05:00:00 11.1 2 Oeste 4 Norte 0 -- -- 90
2019-06-03 04:00:00 10.9 0 Calma 4 Oeste 0 -- -- 90
2019-06-03 03:00:00 12.2 0 Calma 4 Nordeste 0 -- -- 89
2019-06-03 02:00:00 12.4 0 Calma 5 Nordeste 0 -- -- 92
2019-06-03 01:00:00 13.2 3 Norte 12 Nordeste 0 -- -- 84
2019-06-03 00:00:00 14.4 3 Sudoeste 14 Norte 0 -- -- 78
2019-06-02 23:00:00 15.5 4 Noroeste 25 Norte 0 -- -- 79
2019-06-02 22:00:00 17.3 10 Norte 31 Norte 0 -- -- 72
2019-06-02 21:00:00 18.1 10 Norte 26 Noroeste 0 -- -- 72
2019-06-02 20:00:00 20.3 9 Norte 24 Norte 0 -- -- 74
2019-06-02 19:00:00 21.7 11 Norte 24 Nordeste 0 -- -- 73
2019-06-02 18:00:00 23.3 13 Norte 23 Norte 0 -- -- 68
2019-06-02 17:00:00 26.3 6 Sur 19 Sudoeste 0 -- -- 52
2019-06-02 16:00:00 26 13 Sur 25 Sur 0 -- -- 51
2019-06-02 15:00:00 25.8 11 Sudoeste 22 Sur 0 -- -- 44
2019-06-02 14:00:00 25 10 Sur 27 Sur 0 -- -- 49
2019-06-02 13:00:00 24.7 13 Sur 21 Sur 0 -- -- 51
2019-06-02 12:00:00 24 11 Sur 24 Sur 0 -- -- 44
2019-06-02 11:00:00 22.8 9 Sur 18 Sur 0 -- -- 47
2019-06-02 10:00:00 22 5 Sudeste 18 Sudeste 0 -- -- 51
2019-06-02 09:00:00 20.2 3 Sudeste 13 Nordeste 0 -- -- 53
2019-06-02 08:00:00 17.6 4 Nordeste 7 Sudeste 0 -- -- 59
2019-06-02 07:00:00 15.6 2 Norte 8 Noroeste 0 -- -- 63
2019-06-02 06:00:00 15.4 3 Noroeste 9 Sudoeste 0 -- -- 63
2019-06-02 05:00:00 15.7 3 Nordeste 11 Nordeste 0 -- -- 65
2019-06-02 04:00:00 15.8 3 Nordeste 8 Este 0 -- -- 65
2019-06-02 03:00:00 15.4 3 Norte 6 Norte 0 -- -- 70
2019-06-02 02:00:00 14.2 2 Noroeste 5 Oeste 0 -- -- 72
2019-06-02 01:00:00 12.3 0 Calma 5 Sur 0 -- -- 88
2019-06-02 00:00:00 13.4 0 Calma 3 Noroeste 0 -- -- 85
2019-06-01 23:00:00 14.8 2 Noroeste 7 Norte 0 -- -- 75
2019-06-01 22:00:00 16.4 0 Calma 12 Norte 0 -- -- 80
2019-06-01 21:00:00 18.3 6 Norte 11 Norte 0 -- -- 64
2019-06-01 20:00:00 20.5 5 Norte 8 Sur 0 -- -- 58
2019-06-01 19:00:00 25.4 3 Sudoeste 8 Sur 0 -- -- 48
2019-06-01 18:00:00 25.5 5 Sudoeste 21 Sur 0 -- -- 38
2019-06-01 17:00:00 25.2 10 Sudoeste 21 Sur 0 -- -- 41
2019-06-01 16:00:00 24.5 10 Sudoeste 25 Sur 0 -- -- 42
2019-06-01 15:00:00 24.2 12 Sudoeste 29 Sur 0 -- -- 43
2019-06-01 14:00:00 23.4 15 Sur 26 Sur 0 -- -- 46
2019-06-01 13:00:00 23 14 Sur 28 Sur 0 -- -- 52
2019-06-01 12:00:00 22.2 15 Sur 27 Sur 0 -- -- 54
2019-06-01 11:00:00 21 11 Sur 18 Sur 0 -- -- 60
2019-06-01 10:00:00 19.8 6 Sudeste 14 Sur 0 -- -- 63
2019-06-01 09:00:00 18.3 6 Este 10 Este 0 -- -- 64
2019-06-01 08:00:00 15.9 0 Calma 6 Nordeste 0 -- -- 76
2019-06-01 07:00:00 12.6 3 Noroeste 5 Noroeste 0 -- -- 88
2019-06-01 06:00:00 12.7 3 Norte 6 Nordeste 0 -- -- 89
2019-06-01 05:00:00 12.9 3 Norte 6 Norte 0 -- -- 91
2019-06-01 04:00:00 13.1 3 Norte 8 Norte 0 -- -- 90
2019-06-01 03:00:00 11.9 2 Noroeste 4 Norte 0 -- -- 94
2019-06-01 02:00:00 11.8 2 Noroeste 5 Norte 0 -- -- 96
2019-06-01 01:00:00 10.7 0 Calma 2 Norte 0 -- -- 96
2019-06-01 00:00:00 11.4 0 Calma 4 Norte 0 -- -- 82
2019-05-31 23:00:00 12.6 2 Norte 4 Noroeste 0 -- -- 89
2019-05-31 22:00:00 14.4 3 Noroeste 19 Norte 0 -- -- 87
2019-05-31 21:00:00 17.3 9 Nordeste 24 Norte 0 -- -- 73
2019-05-31 20:00:00 19 13 Norte 26 Norte 0 -- -- 68
2019-05-31 19:00:00 19.9 15 Norte 28 Noroeste 0 -- -- 67
2019-05-31 18:00:00 20.5 14 Norte 30 Norte 0 -- -- 67
2019-05-31 17:00:00 20.8 14 Norte 28 Norte 0 -- -- 67
2019-05-31 16:00:00 21.1 13 Norte 25 Norte 0 -- -- 66
2019-05-31 15:00:00 20.7 14 Norte 25 Norte 0 -- -- 69
2019-05-31 14:00:00 20.9 11 Norte 21 Nordeste 0 -- -- 63
2019-05-31 13:00:00 20.3 11 Nordeste 26 Nordeste 0 -- -- 64
2019-05-31 12:00:00 20.7 10 Sudeste 22 Sudeste 0 -- -- 65
2019-05-31 11:00:00 19.4 6 Sur 9 Sur 0 -- -- 65
2019-05-31 10:00:00 17.3 5 Sur 8 Sur 0 -- -- 78
2019-05-31 09:00:00 16.1 0 Calma 5 Este 0 -- -- 80
2019-05-31 08:00:00 11.5 0 Calma 5 Nordeste 0 -- -- 92
2019-05-31 07:00:00 8.9 0 Calma 6 Sudoeste 0 -- -- 100
2019-05-31 06:00:00 8.8 2 Noroeste 7 Nordeste 0 -- -- 99
2019-05-31 05:00:00 9.8 3 Noroeste 19 Nordeste 0 -- -- 96
2019-05-31 04:00:00 10.3 6 Nordeste 14 Nordeste 0 -- -- 99
2019-05-31 03:00:00 9.3 2 Norte 15 Norte 0 -- -- 98
2019-05-31 02:00:00 13.2 7 Nordeste 22 Norte 0 -- -- 80
2019-05-31 01:00:00 12.8 12 Nordeste 30 Nordeste 0 -- -- 90
2019-05-31 00:00:00 13 15 Norte 27 Nordeste 0 -- -- 92
2019-05-30 23:00:00 12.9 6 Norte 22 Norte 0 -- -- 91
2019-05-30 22:00:00 13.4 6 Norte 18 Noroeste 0 -- -- 89
2019-05-30 21:00:00 13.9 5 Sudoeste 22 Norte 0 -- -- 87
2019-05-30 20:00:00 15.2 16 Noroeste 37 Noroeste 0 -- -- 81
2019-05-30 19:00:00 16.1 15 Norte 38 Norte 0 -- -- 76
2019-05-30 18:00:00 16.7 14 Norte 33 Norte 0 -- -- 76
2019-05-30 17:00:00 16.9 14 Norte 30 Norte 0 -- -- 74
2019-05-30 16:00:00 16.5 15 Norte 33 Norte 0 -- -- 74
2019-05-30 15:00:00 16.5 14 Norte 28 Norte 0 -- -- 73
2019-05-30 14:00:00 16.5 10 Norte 27 Norte 0 -- -- 71
2019-05-30 13:00:00 15.3 13 Norte 30 Norte 0 -- -- 73
2019-05-30 12:00:00 13.9 15 Norte 32 Noroeste 0 -- -- 77
2019-05-30 11:00:00 13.4 13 Norte 29 Norte 0 -- -- 72
2019-05-30 10:00:00 11.3 17 Norte 31 Norte 0 -- -- 78
2019-05-30 09:00:00 12.1 7 Nordeste 23 Norte 0 -- -- 71
2019-05-30 08:00:00 10.3 11 Norte 24 Norte 0 -- -- 75
2019-05-30 07:00:00 8.9 9 Norte 18 Norte 0 -- -- 81
2019-05-30 06:00:00 4.8 0 Calma 11 Nordeste 0 -- -- 99
2019-05-30 05:00:00 8.7 9 Nordeste 23 Norte 0 -- -- 82
2019-05-30 04:00:00 6.7 12 Norte 31 Norte 0 -- -- 100
2019-05-30 03:00:00 7.4 6 Nordeste 33 Nordeste 0 -- -- 93
2019-05-30 02:00:00 6.7 18 Norte 34 Norte 0 -- -- 100
2019-05-30 01:00:00 6.7 16 Norte 33 Norte 0 -- -- 98
2019-05-30 00:00:00 6.9 16 Norte 32 Norte 0 -- -- 96
2019-05-29 23:00:00 7.2 8 Noroeste 27 Noroeste 0 -- -- 94
2019-05-29 22:00:00 7.8 8 Noroeste 18 Noroeste 0 -- -- 94
2019-05-29 21:00:00 8.4 4 Sur 15 Noroeste 0 -- -- 90
2019-05-29 20:00:00 9.1 5 Noroeste 22 Norte 0 -- -- 87
2019-05-29 19:00:00 10.3 7 Sudeste 23 Noroeste 0 -- -- 81
2019-05-29 18:00:00 11.6 8 Sudeste 28 Este 0 -- -- 75
2019-05-29 17:00:00 12.1 7 Sur 23 Este 0 -- -- 77
2019-05-29 16:00:00 12.8 6 Noroeste 24 Este 0 -- -- 68
2019-05-29 15:00:00 11.9 11 Sudeste 27 Este 0 -- -- 77
2019-05-29 14:00:00 11.4 6 Sur 21 Este 0 -- -- 81
2019-05-29 13:00:00 9.3 6 Sudeste 17 Oeste 0 -- -- 93
2019-05-29 12:00:00 7.7 4 Sudoeste 24 Este 0 -- -- 96
2019-05-29 11:00:00 7.8 8 Sudeste 24 Sudeste 0.2 -- -- 99
2019-05-29 10:00:00 6.9 4 Oeste 15 Noroeste 0 -- -- 97
2019-05-29 09:00:00 6.7 4 Noroeste 23 Norte 0.2 -- -- 98
2019-05-29 08:00:00 6.4 4 Sudoeste 12 Oeste 0 -- -- 100
2019-05-29 07:00:00 6.1 6 Oeste 19 Norte 0.4 -- -- 100
2019-05-29 06:00:00 6.1 5 Oeste 22 Oeste 1.8 -- -- 100
2019-05-29 05:00:00 6.1 6 Sur 19 Sudoeste 0.2 -- -- 100
2019-05-29 04:00:00 5.8 4 Sudoeste 18 Oeste 0.6 -- -- 100
2019-05-29 03:00:00 6 6 Oeste 25 Sudoeste 0.4 -- -- 98
2019-05-29 02:00:00 6 8 Sur 17 Sur 1.2 -- -- 100
2019-05-29 01:00:00 6 4 Oeste 19 Oeste 0.4 -- -- 99
2019-05-29 00:00:00 6 5 Sudoeste 21 Norte 0.2 -- -- 99
2019-05-28 23:00:00 6.2 5 Oeste 24 Noroeste 0.6 -- -- 97
2019-05-28 22:00:00 6.3 6 Noroeste 21 Oeste 0.8 -- -- 98
2019-05-28 21:00:00 6.5 6 Norte 24 Sudeste 0.4 -- -- 98
2019-05-28 20:00:00 6.5 6 Noroeste 22 Norte 0.8 -- -- 97
2019-05-28 19:00:00 6.8 5 Oeste 21 Oeste 0.2 -- -- 96
2019-05-28 18:00:00 7.3 6 Oeste 35 Norte 0.2 -- -- 95
2019-05-28 17:00:00 7.3 6 Oeste 23 Nordeste 0.4 -- -- 96
2019-05-28 16:00:00 7.1 8 Noroeste 28 Noroeste 1.4 -- -- 95
2019-05-28 15:00:00 7.4 6 Sudoeste 23 Noroeste 1 -- -- 99
2019-05-28 14:00:00 8.2 5 Sudoeste 21 Sudeste 0 -- -- 91
2019-05-28 13:00:00 8.7 7 Sudoeste 25 Sudeste 0.2 -- -- 91
2019-05-28 12:00:00 6.9 7 Oeste 18 Oeste 0.8 -- -- 99
2019-05-28 11:00:00 6.7 8 Sudoeste 17 Sur 1.4 -- -- 98
2019-05-28 10:00:00 6.6 3 Sudoeste 18 Sur 1 -- -- 100
2019-05-28 09:00:00 6.3 7 Noroeste 19 Norte 0.8 -- -- 99
2019-05-28 08:00:00 6.1 5 Sudoeste 23 Norte 0 -- -- 99
2019-05-28 07:00:00 6.1 4 Sudoeste 15 Oeste 0.6 -- -- 100
2019-05-28 06:00:00 6.1 4 Sudoeste 11 Oeste 0 -- -- 99
2019-05-28 05:00:00 6 5 Sudoeste 17 Sur 0 -- -- 98
2019-05-28 04:00:00 6.2 7 Sudoeste 23 Noroeste 0 -- -- 95
2019-05-28 03:00:00 6.4 5 Oeste 21 Oeste 0 -- -- 96
2019-05-28 02:00:00 6.3 5 Noroeste 21 Norte 0 -- -- 97
2019-05-28 01:00:00 6.4 5 Oeste 26 Norte 0 -- -- 93
2019-05-28 00:00:00 7.6 5 Sudoeste 18 Sudoeste 0 -- -- 97
2019-05-27 23:00:00 7.8 4 Sudoeste 17 Este 0.2 -- -- 100
2019-05-27 22:00:00 8.2 5 Oeste 21 Sudeste 0 -- -- 96
2019-05-27 21:00:00 8.8 9 Nordeste 29 Nordeste 0.2 -- -- 93
2019-05-27 20:00:00 9.6 8 Norte 32 Nordeste 1.2 -- -- 99
2019-05-27 19:00:00 10.5 5 Noroeste 17 Norte 1.8 -- -- 98
2019-05-27 18:00:00 10.7 5 Noroeste 18 Norte 0.8 -- -- 97
2019-05-27 17:00:00 10.6 6 Norte 21 Norte 0.8 -- -- 98
2019-05-27 16:00:00 10.2 6 Noroeste 21 Noroeste 0.8 -- -- 99
2019-05-27 15:00:00 9.9 8 Norte 23 Norte 1.4 -- -- 100
2019-05-27 14:00:00 10 4 Sudoeste 15 Norte 0.2 -- -- 100
2019-05-27 13:00:00 10.9 6 Oeste 21 Noroeste 0 -- -- 98
2019-05-27 12:00:00 10.2 5 Oeste 19 Noroeste 0.2 -- -- 100
2019-05-27 11:00:00 9.4 8 Noroeste 19 Noroeste 0.2 -- -- 100
2019-05-27 10:00:00 8.8 5 Sudoeste 22 Noroeste 0 -- -- 100
2019-05-27 09:00:00 8.2 5 Oeste 27 Norte 0 -- -- 100
2019-05-27 08:00:00 7.8 3 Sudoeste 17 Norte 0.2 -- -- 100
2019-05-27 07:00:00 7.4 4 Sudoeste 22 Noroeste 0.2 -- -- 100
2019-05-27 06:00:00 7.4 4 Norte 26 Noroeste 0.4 -- -- 100
2019-05-27 05:00:00 7.5 12 Norte 24 Norte 0.2 -- -- 100
2019-05-27 04:00:00 7.7 5 Oeste 13 Noroeste 0.2 -- -- 100
2019-05-27 03:00:00 7.7 5 Sudoeste 12 Sudoeste 0.2 -- -- 100
2019-05-27 02:00:00 7.6 3 Sudoeste 26 Noroeste 0.2 -- -- 100
2019-05-27 01:00:00 7.8 5 Oeste 23 Nordeste 0 -- -- 100
2019-05-27 00:00:00 8.1 7 Noroeste 28 Noroeste 0 -- -- 100